Time;durP1;ratioP1;P1;durP2;ratioP2;P2;SDS_P1;SDS_P2;PMS_P1;PMS_P2;Temp;Humidity;BMP_temperature;BMP_pressure;BME280_temperature;BME280_humidity;BME280_pressure;Samples;Min_cycle;Max_cycle;Signal;HPM_P1;HPM_P2
2022/02/12 00:00:11;;;;;;;15.60;5.22;;;1.30;99.90;;;;;;5069871;28;20091;-53
2022/02/12 00:02:37;;;;;;;17.77;6.75;;;1.30;99.90;;;;;;5071818;28;20481;-49
2022/02/12 00:05:04;;;;;;;18.00;5.93;;;1.30;99.90;;;;;;5070786;28;20488;-50
2022/02/12 00:07:29;;;;;;;20.17;6.40;;;1.40;99.90;;;;;;5062942;28;20155;-51
2022/02/12 00:09:55;;;;;;;15.85;6.28;;;1.40;99.90;;;;;;5039882;28;20120;-52
2022/02/12 00:12:20;;;;;;;14.02;5.82;;;1.40;99.90;;;;;;5051697;28;20495;-53
2022/02/12 00:14:46;;;;;;;15.65;6.05;;;1.40;99.90;;;;;;5054410;28;20036;-52
2022/02/12 00:17:11;;;;;;;21.77;6.32;;;1.40;99.90;;;;;;5051640;28;20482;-51
2022/02/12 00:19:37;;;;;;;22.92;5.75;;;1.40;99.90;;;;;;5052112;28;20052;-52
2022/02/12 00:22:02;;;;;;;23.63;6.63;;;1.40;99.90;;;;;;5051635;28;20041;-51
2022/02/12 00:24:28;;;;;;;19.35;6.30;;;1.40;99.90;;;;;;5059569;28;20033;-50
2022/02/12 00:26:53;;;;;;;14.25;6.00;;;1.40;99.90;;;;;;5070449;28;20036;-50
2022/02/12 00:29:19;;;;;;;18.15;6.03;;;1.40;99.90;;;;;;5071749;28;20444;-51
2022/02/12 00:31:44;;;;;;;17.83;6.15;;;1.40;99.90;;;;;;5071683;28;20706;-51
2022/02/12 00:34:10;;;;;;;23.38;5.45;;;1.40;99.90;;;;;;5057003;28;20456;-50
2022/02/12 00:36:36;;;;;;;19.85;5.40;;;1.40;99.90;;;;;;5037283;28;20044;-49
2022/02/12 00:39:03;;;;;;;22.38;5.70;;;1.40;99.90;;;;;;5030147;28;20120;-48
2022/02/12 00:41:29;;;;;;;15.10;5.47;;;1.40;99.90;;;;;;5046322;28;20037;-50
2022/02/12 00:43:54;;;;;;;21.30;6.10;;;1.30;99.90;;;;;;5070436;28;20035;-50
2022/02/12 00:46:20;;;;;;;23.08;5.13;;;1.40;99.90;;;;;;5071351;28;20037;-49
2022/02/12 00:48:45;;;;;;;21.85;6.03;;;1.30;99.90;;;;;;5071443;28;20041;-50
2022/02/12 00:51:13;;;;;;;20.60;4.88;;;1.30;99.90;;;;;;5071453;28;20067;-49
2022/02/12 00:53:40;;;;;;;16.52;5.30;;;1.30;99.90;;;;;;5070259;28;20051;-50
2022/02/12 00:56:06;;;;;;;21.42;5.63;;;1.30;99.90;;;;;;5067736;28;20249;-51
2022/02/12 00:58:31;;;;;;;18.73;5.45;;;1.30;99.90;;;;;;5051796;28;20463;-50
2022/02/12 01:00:57;;;;;;;19.38;5.47;;;1.20;99.90;;;;;;5051038;28;20121;-50
2022/02/12 01:03:23;;;;;;;18.80;5.72;;;1.20;99.90;;;;;;5049454;28;20040;-50
2022/02/12 01:05:48;;;;;;;17.05;5.22;;;1.20;99.90;;;;;;5045928;28;20041;-52
2022/02/12 01:08:14;;;;;;;14.18;5.20;;;1.20;99.90;;;;;;5041767;28;20508;-54
2022/02/12 01:10:39;;;;;;;19.95;5.72;;;1.20;99.90;;;;;;5041936;28;20369;-50
2022/02/12 01:13:05;;;;;;;15.32;5.10;;;1.20;99.90;;;;;;5048836;28;20385;-49
2022/02/12 01:15:33;;;;;;;19.55;5.65;;;1.20;99.90;;;;;;5051937;28;20033;-49
2022/02/12 01:17:59;;;;;;;18.20;5.63;;;1.20;99.90;;;;;;5050984;28;20603;-50
2022/02/12 01:20:24;;;;;;;22.73;5.97;;;1.10;99.90;;;;;;5050944;28;20563;-50
2022/02/12 01:22:50;;;;;;;19.48;5.45;;;1.20;99.90;;;;;;5042267;28;20041;-51
2022/02/12 01:25:16;;;;;;;12.77;5.38;;;1.10;99.90;;;;;;5064461;28;20040;-53
2022/02/12 01:27:42;;;;;;;21.65;5.97;;;1.20;99.90;;;;;;5070894;28;20086;-50
2022/02/12 01:30:09;;;;;;;17.85;5.50;;;1.10;99.90;;;;;;5052153;28;20041;-50
2022/02/12 01:32:35;;;;;;;20.50;5.90;;;1.10;99.90;;;;;;5051018;28;20120;-51
2022/02/12 01:35:01;;;;;;;12.05;5.70;;;1.10;99.90;;;;;;5062068;28;20036;-51
2022/02/12 01:37:27;;;;;;;17.30;6.10;;;1.10;99.90;;;;;;5046338;28;20029;-51
2022/02/12 01:39:52;;;;;;;15.05;5.70;;;1.00;99.90;;;;;;5042873;28;20088;-51
2022/02/12 01:42:18;;;;;;;20.88;5.97;;;1.00;99.90;;;;;;5050660;28;20099;-51
2022/02/12 01:44:45;;;;;;;14.98;5.47;;;1.00;99.90;;;;;;5059045;28;20033;-50
2022/02/12 01:47:11;;;;;;;20.52;6.20;;;1.00;99.90;;;;;;5070738;28;20045;-49
2022/02/12 01:49:38;;;;;;;20.05;6.25;;;1.00;99.90;;;;;;5070900;28;20112;-48
2022/02/12 01:52:09;;;;;;;18.17;6.10;;;1.00;99.90;;;;;;5069273;28;20400;-49
2022/02/12 01:54:35;;;;;;;16.88;6.72;;;1.00;99.90;;;;;;5070177;28;20076;-50
2022/02/12 01:57:03;;;;;;;20.95;5.75;;;1.00;99.90;;;;;;5062669;28;20497;-50
2022/02/12 01:59:28;;;;;;;21.45;6.40;;;0.90;99.90;;;;;;5054381;28;20493;-50
2022/02/12 02:01:55;;;;;;;17.30;6.13;;;1.00;99.90;;;;;;5054324;28;20036;-49
2022/02/12 02:04:21;;;;;;;14.52;5.90;;;1.00;99.90;;;;;;5059298;28;20545;-49
2022/02/12 02:06:47;;;;;;;17.75;5.82;;;1.00;99.90;;;;;;5074260;28;20036;-50
2022/02/12 02:09:18;;;;;;;19.40;6.10;;;1.00;99.90;;;;;;5063403;28;20164;-48
2022/02/12 02:11:44;;;;;;;19.95;6.18;;;1.00;99.90;;;;;;5048985;28;20040;-50
2022/02/12 02:14:13;;;;;;;15.80;6.15;;;0.90;99.90;;;;;;5050490;28;20094;-51
2022/02/12 02:16:40;;;;;;;16.20;5.40;;;1.00;99.90;;;;;;5053915;28;20037;-50
2022/02/12 02:19:07;;;;;;;20.42;5.47;;;1.00;99.90;;;;;;5045639;28;20045;-50
2022/02/12 02:21:36;;;;;;;19.98;5.63;;;0.90;99.90;;;;;;5048644;28;20396;-48
2022/02/12 02:24:03;;;;;;;17.10;5.60;;;0.90;99.90;;;;;;5052795;28;20096;-50
2022/02/12 02:26:28;;;;;;;21.73;5.68;;;0.90;99.90;;;;;;5046177;28;20497;-49
2022/02/12 02:28:54;;;;;;;27.52;5.63;;;0.90;99.90;;;;;;5041679;28;20077;-50
2022/02/12 02:31:19;;;;;;;16.83;4.82;;;0.90;99.90;;;;;;5045474;28;20051;-48
2022/02/12 02:33:45;;;;;;;18.73;5.47;;;0.90;99.90;;;;;;5053195;28;20041;-50
2022/02/12 02:36:12;;;;;;;21.77;4.75;;;0.90;99.90;;;;;;5053360;28;20098;-50
2022/02/12 02:38:37;;;;;;;18.20;5.70;;;0.90;99.90;;;;;;5048347;28;20079;-49
2022/02/12 02:41:03;;;;;;;18.85;4.85;;;0.90;99.90;;;;;;5073576;28;20072;-51
2022/02/12 02:43:29;;;;;;;15.07;5.10;;;0.90;99.90;;;;;;5070252;28;20432;-48
2022/02/12 02:45:54;;;;;;;20.85;5.30;;;0.90;99.90;;;;;;5044053;28;20033;-50
2022/02/12 02:48:20;;;;;;;13.20;4.63;;;0.90;99.90;;;;;;5050516;28;20069;-50
2022/02/12 02:56:15;;;;;;;18.38;4.72;;;0.80;99.90;;;;;;5073291;28;20047;-54
2022/02/12 02:58:43;;;;;;;15.88;4.90;;;0.80;99.90;;;;;;5073716;28;20029;-52
2022/02/12 03:01:15;;;;;;;19.02;4.90;;;0.70;99.90;;;;;;5057283;28;20044;-54
2022/02/12 03:03:41;;;;;;;;;;;0.70;99.90;;;;;;5043845;28;20037;-52
2022/02/12 03:06:08;;;;;;;15.75;5.15;;;0.70;99.90;;;;;;5036652;28;20019;-52
2022/02/12 03:08:34;;;;;;;21.45;5.35;;;0.70;99.90;;;;;;5052831;28;20037;-51
2022/02/12 03:11:00;;;;;;;14.70;5.43;;;0.70;99.90;;;;;;5052806;28;20068;-50
2022/02/12 03:13:26;;;;;;;23.25;5.78;;;0.70;99.90;;;;;;5052979;28;20480;-53
2022/02/12 03:15:52;;;;;;;17.70;5.00;;;0.70;99.90;;;;;;5053677;28;20068;-54
2022/02/12 03:18:18;;;;;;;20.75;5.35;;;0.70;99.90;;;;;;5049695;28;20469;-54
2022/02/12 03:20:43;;;;;;;22.23;5.50;;;0.70;99.90;;;;;;5051251;28;20402;-51
2022/02/12 03:23:09;;;;;;;17.52;5.80;;;0.70;99.90;;;;;;5033161;28;20477;-53
2022/02/12 03:25:35;;;;;;;17.00;6.00;;;0.70;99.90;;;;;;5059755;28;20041;-51
2022/02/12 03:28:03;;;;;;;22.27;5.40;;;0.70;99.90;;;;;;5072329;28;20032;-53
2022/02/12 03:30:31;;;;;;;21.13;5.18;;;0.70;99.90;;;;;;5072767;28;20060;-54
2022/02/12 03:32:57;;;;;;;21.20;5.47;;;0.70;99.90;;;;;;5072729;28;20067;-53
2022/02/12 03:35:23;;;;;;;16.27;5.45;;;0.70;99.90;;;;;;5071464;28;20079;-52
2022/02/12 03:37:51;;;;;;;21.25;5.57;;;0.70;99.90;;;;;;5072335;28;20167;-53
2022/02/12 03:40:17;;;;;;;21.70;5.72;;;0.70;99.90;;;;;;5071471;28;20028;-54
2022/02/12 03:42:43;;;;;;;19.30;5.18;;;0.70;99.90;;;;;;5052509;28;20235;-54
2022/02/12 03:45:09;;;;;;;15.38;5.38;;;0.70;99.90;;;;;;5061800;28;20036;-54
2022/02/12 03:47:36;;;;;;;21.70;6.18;;;0.70;99.90;;;;;;5071104;28;20222;-51
2022/02/12 03:50:03;;;;;;;21.95;6.53;;;0.70;99.90;;;;;;5072428;28;20510;-53
2022/02/12 03:52:28;;;;;;;22.65;5.97;;;0.70;99.90;;;;;;5072187;28;20046;-50
2022/02/12 03:54:54;;;;;;;21.52;6.05;;;0.70;99.90;;;;;;5063600;28;20045;-49
2022/02/12 03:57:19;;;;;;;13.55;5.18;;;0.70;99.90;;;;;;5049749;28;20403;-51
2022/02/12 03:59:45;;;;;;;18.40;5.78;;;0.60;99.90;;;;;;5052050;28;20055;-52
2022/02/12 04:02:10;;;;;;;18.52;6.35;;;0.60;99.90;;;;;;5049360;28;20081;-53
2022/02/12 04:04:36;;;;;;;17.10;6.10;;;0.60;99.90;;;;;;5056495;28;20038;-50
2022/02/12 04:07:03;;;;;;;16.70;6.25;;;0.60;99.90;;;;;;5071851;28;20063;-50
2022/02/12 04:09:29;;;;;;;20.60;6.13;;;0.60;99.90;;;;;;5071805;28;20396;-52
2022/02/12 04:11:55;;;;;;;22.02;6.97;;;0.60;99.90;;;;;;5071781;28;20067;-51
2022/02/12 04:14:20;;;;;;;20.10;6.80;;;0.60;99.90;;;;;;5069582;28;20037;-51
2022/02/12 04:16:46;;;;;;;21.83;7.38;;;0.60;99.90;;;;;;5071806;28;20111;-50
2022/02/12 04:19:11;;;;;;;15.68;6.05;;;0.60;99.90;;;;;;5071590;28;20075;-52
2022/02/12 04:21:37;;;;;;;19.90;6.50;;;0.60;99.90;;;;;;5071646;28;20051;-54
2022/02/12 04:24:03;;;;;;;20.08;6.35;;;0.60;99.90;;;;;;5070771;28;20404;-52
2022/02/12 04:26:29;;;;;;;15.20;6.50;;;0.60;99.90;;;;;;5070310;28;20131;-49
2022/02/12 04:28:55;;;;;;;24.85;7.55;;;0.60;99.90;;;;;;5071844;28;20074;-49
2022/02/12 04:31:20;;;;;;;23.60;7.57;;;0.60;99.90;;;;;;5071774;28;20040;-51
2022/02/12 04:33:46;;;;;;;25.20;7.53;;;0.60;99.90;;;;;;5070517;28;20041;-50
2022/02/12 04:36:11;;;;;;;22.42;6.82;;;0.60;99.90;;;;;;5053113;28;20638;-51
2022/02/12 04:38:38;;;;;;;19.98;7.40;;;0.60;99.90;;;;;;5060617;28;20043;-49
2022/02/12 04:41:03;;;;;;;20.60;7.63;;;0.60;99.90;;;;;;5071535;28;20048;-50
2022/02/12 04:43:29;;;;;;;22.90;8.32;;;0.70;99.90;;;;;;5070305;28;20276;-51
2022/02/12 04:45:55;;;;;;;23.40;8.02;;;0.70;99.90;;;;;;5069218;28;20040;-50
2022/02/12 04:48:21;;;;;;;23.55;7.78;;;0.70;99.90;;;;;;5071355;28;20036;-49
2022/02/12 04:50:47;;;;;;;22.58;7.90;;;0.70;99.90;;;;;;5071412;28;20094;-50
2022/02/12 04:53:12;;;;;;;20.20;7.95;;;0.70;99.90;;;;;;5071359;28;20028;-50
2022/02/12 04:55:38;;;;;;;21.00;8.35;;;0.70;99.90;;;;;;5070540;28;20045;-51
2022/02/12 04:58:03;;;;;;;24.15;8.18;;;0.70;99.90;;;;;;5069837;28;20032;-51
2022/02/12 05:00:29;;;;;;;21.10;7.40;;;0.70;99.90;;;;;;5071306;28;20037;-50
2022/02/12 05:02:54;;;;;;;22.58;8.00;;;0.70;99.90;;;;;;5071355;28;20101;-51
2022/02/12 05:05:20;;;;;;;21.85;8.00;;;0.70;99.90;;;;;;5070155;28;20041;-50
2022/02/12 05:07:45;;;;;;;18.50;7.68;;;0.70;99.90;;;;;;5070911;28;20033;-51
2022/02/12 05:10:11;;;;;;;22.25;7.90;;;0.70;99.90;;;;;;5070177;28;20048;-51
2022/02/12 05:12:36;;;;;;;21.77;7.82;;;0.70;99.90;;;;;;5071554;28;20523;-48
2022/02/12 05:15:03;;;;;;;23.83;8.55;;;0.70;99.90;;;;;;5070154;28;20036;-48
2022/02/12 05:17:28;;;;;;;21.88;8.23;;;0.70;99.90;;;;;;5070927;28;20033;-51
2022/02/12 05:19:54;;;;;;;20.77;7.85;;;0.70;99.90;;;;;;5071215;28;20047;-49
2022/02/12 05:22:19;;;;;;;23.77;8.07;;;0.70;99.90;;;;;;5070879;28;20049;-48
2022/02/12 05:24:46;;;;;;;20.52;8.10;;;0.70;99.90;;;;;;5068875;28;20468;-48
2022/02/12 05:27:12;;;;;;;19.00;7.95;;;0.70;99.90;;;;;;5070864;28;20051;-48
2022/02/12 05:29:37;;;;;;;20.45;7.97;;;0.70;99.90;;;;;;5071657;28;20040;-48
2022/02/12 05:32:03;;;;;;;20.67;8.65;;;0.70;99.90;;;;;;5074775;28;20047;-48
2022/02/12 05:34:28;;;;;;;24.55;9.00;;;0.80;99.90;;;;;;5073618;28;20040;-50
2022/02/12 05:36:54;;;;;;;23.15;8.07;;;0.70;99.90;;;;;;5074702;28;20043;-48
2022/02/12 05:39:20;;;;;;;20.35;8.20;;;0.80;99.90;;;;;;5073502;28;20323;-48
2022/02/12 05:41:46;;;;;;;20.70;8.45;;;0.70;99.90;;;;;;5074604;28;20546;-48
2022/02/12 05:44:12;;;;;;;24.35;9.18;;;0.70;99.90;;;;;;5074834;28;20036;-48
2022/02/12 05:46:38;;;;;;;24.55;9.05;;;0.70;99.90;;;;;;5073644;28;20068;-48
2022/02/12 05:49:04;;;;;;;20.27;9.02;;;0.70;99.90;;;;;;5074620;28;20037;-48
2022/02/12 05:51:33;;;;;;;25.90;8.88;;;0.70;99.90;;;;;;5074464;28;20119;-48
2022/02/12 05:54:03;;;;;;;20.23;9.40;;;0.10;99.90;;;;;;5073441;28;20063;-48
2022/02/12 05:56:30;;;;;;;22.52;9.48;;;0.70;99.90;;;;;;5057330;28;20037;-48
2022/02/12 05:58:57;;;;;;;17.77;9.40;;;0.60;99.90;;;;;;5037748;28;20042;-48
2022/02/12 06:01:22;;;;;;;24.98;10.18;;;0.60;99.90;;;;;;5034389;28;20068;-48
2022/02/12 06:03:48;;;;;;;28.10;10.13;;;0.60;99.90;;;;;;5034464;28;20068;-48
2022/02/12 06:06:16;;;;;;;19.75;9.93;;;0.60;99.90;;;;;;5063662;28;20044;-48
2022/02/12 06:08:41;;;;;;;30.05;9.77;;;0.60;99.90;;;;;;5074424;28;20033;-49
2022/02/12 06:11:07;;;;;;;25.52;10.35;;;0.60;99.90;;;;;;5074143;28;20051;-48
2022/02/12 06:13:32;;;;;;;24.55;10.27;;;0.50;99.90;;;;;;5072900;28;20037;-48
2022/02/12 06:15:58;;;;;;;22.40;10.25;;;0.50;99.90;;;;;;5073313;28;20165;-51
2022/02/12 06:18:23;;;;;;;25.65;10.27;;;0.50;99.90;;;;;;5074114;28;20089;-52
2022/02/12 06:20:49;;;;;;;23.15;9.57;;;0.50;99.90;;;;;;5072593;28;20131;-48
2022/02/12 06:23:15;;;;;;;25.25;10.65;;;0.60;99.90;;;;;;5074258;28;20048;-48
2022/02/12 06:25:41;;;;;;;28.15;9.80;;;0.50;99.90;;;;;;5072943;28;20037;-48
2022/02/12 06:28:06;;;;;;;30.10;10.07;;;0.60;99.90;;;;;;5073836;28;20032;-50
2022/02/12 06:30:32;;;;;;;18.50;9.07;;;0.50;99.90;;;;;;5073659;28;20043;-50
2022/02/12 06:32:59;;;;;;;20.63;9.23;;;0.60;99.90;;;;;;5072745;28;20040;-48
2022/02/12 06:35:26;;;;;;;28.25;9.57;;;0.60;99.90;;;;;;5072550;28;20450;-48
2022/02/12 06:37:52;;;;;;;22.98;9.18;;;0.50;99.90;;;;;;5073696;28;20036;-51
2022/02/12 06:40:17;;;;;;;24.02;9.55;;;0.60;99.90;;;;;;5073768;28;20041;-48
2022/02/12 06:42:43;;;;;;;23.80;8.82;;;0.60;99.90;;;;;;5073709;28;20048;-48
2022/02/12 06:45:09;;;;;;;29.55;9.82;;;0.60;99.90;;;;;;5072462;28;20035;-48
2022/02/12 06:47:36;;;;;;;22.17;8.77;;;0.60;99.90;;;;;;5072591;28;20108;-48
2022/02/12 06:50:02;;;;;;;20.10;9.32;;;0.60;99.90;;;;;;5073492;28;20116;-48
2022/02/12 06:52:28;;;;;;;20.15;9.13;;;0.60;99.90;;;;;;5073616;28;20040;-48
2022/02/12 06:54:54;;;;;;;29.05;9.57;;;0.60;99.90;;;;;;5065943;28;20044;-51
2022/02/12 06:57:19;;;;;;;22.02;9.38;;;0.60;99.90;;;;;;5048084;28;20044;-50
2022/02/12 06:59:45;;;;;;;22.75;9.60;;;0.50;99.90;;;;;;5048245;28;20452;-51
2022/02/12 07:02:10;;;;;;;18.98;9.80;;;0.50;99.90;;;;;;5057216;28;20051;-50
2022/02/12 07:04:36;;;;;;;21.45;10.23;;;0.50;99.90;;;;;;5051978;28;20040;-48
2022/02/12 07:07:02;;;;;;;23.33;9.70;;;0.60;99.90;;;;;;5039299;28;20029;-48
2022/02/12 07:09:27;;;;;;;26.40;10.32;;;0.60;99.90;;;;;;5039383;28;20332;-50
2022/02/12 07:11:53;;;;;;;25.73;10.35;;;0.50;99.90;;;;;;5050134;28;20416;-52
2022/02/12 07:14:19;;;;;;;24.40;10.05;;;0.50;99.90;;;;;;5044116;28;20045;-48
2022/02/12 07:16:44;;;;;;;23.50;10.43;;;0.50;99.90;;;;;;5044471;28;20456;-49
2022/02/12 07:19:10;;;;;;;17.67;10.77;;;0.50;99.90;;;;;;5037890;28;20041;-48
2022/02/12 07:21:36;;;;;;;20.90;10.25;;;0.50;99.90;;;;;;5045334;28;20393;-48
2022/02/12 07:24:01;;;;;;;23.67;9.88;;;0.50;99.90;;;;;;5043572;28;20123;-51
2022/02/12 07:26:27;;;;;;;27.13;10.27;;;0.50;99.90;;;;;;5052104;28;20535;-48
2022/02/12 07:28:53;;;;;;;19.10;9.88;;;0.40;99.90;;;;;;5047778;28;20029;-48
2022/02/12 07:31:18;;;;;;;24.30;10.52;;;0.50;99.90;;;;;;5033369;28;20048;-48
2022/02/12 07:33:45;;;;;;;24.10;10.98;;;0.50;99.90;;;;;;5050475;28;20048;-49
2022/02/12 07:36:11;;;;;;;24.83;10.15;;;0.50;99.90;;;;;;5040587;28;20080;-48
2022/02/12 07:38:37;;;;;;;28.38;9.65;;;0.50;99.90;;;;;;5049541;28;20068;-49
2022/02/12 07:41:03;;;;;;;25.08;11.52;;;0.60;99.90;;;;;;5050487;28;20044;-48
2022/02/12 07:43:28;;;;;;;27.15;9.93;;;0.60;99.90;;;;;;5040749;28;20477;-51
2022/02/12 07:45:54;;;;;;;27.77;10.52;;;0.70;99.90;;;;;;5043005;28;20037;-51
2022/02/12 07:48:20;;;;;;;27.10;11.68;;;0.70;99.90;;;;;;5039654;28;20037;-49
2022/02/12 07:50:46;;;;;;;28.73;12.75;;;0.70;99.90;;;;;;5034919;28;20052;-49
2022/02/12 07:53:14;;;;;;;26.83;11.85;;;0.70;99.90;;;;;;5036183;28;20029;-51
2022/02/12 07:55:40;;;;;;;34.00;11.63;;;0.70;99.90;;;;;;5036009;28;20119;-50
2022/02/12 07:58:07;;;;;;;30.95;11.63;;;0.80;99.90;;;;;;5039477;28;20055;-48
2022/02/12 08:00:33;;;;;;;22.85;10.57;;;0.80;99.90;;;;;;5036116;28;20684;-49
2022/02/12 08:02:59;;;;;;;23.27;10.73;;;0.90;99.90;;;;;;5035147;28;20128;-51
2022/02/12 08:05:25;;;;;;;23.50;10.77;;;0.90;99.90;;;;;;5039764;28;20109;-51
2022/02/12 08:07:50;;;;;;;26.33;11.32;;;1.00;99.90;;;;;;5047361;28;20120;-49
2022/02/12 08:13:01;;;;;;;26.70;10.70;;;1.20;99.90;;;;;;5050185;28;20567;-51
2022/02/12 08:15:28;;;;;;;27.67;10.68;;;1.20;99.90;;;;;;5051555;28;20074;-50
2022/02/12 08:17:54;;;;;;;22.20;10.82;;;1.30;99.90;;;;;;5051755;28;20033;-48
2022/02/12 08:20:20;;;;;;;23.23;10.23;;;1.30;99.90;;;;;;5045303;28;20041;-48
2022/02/12 08:22:46;;;;;;;26.42;10.65;;;1.40;99.90;;;;;;5046377;28;20087;-48
2022/02/12 08:25:12;;;;;;;22.65;11.05;;;1.40;99.90;;;;;;5051424;28;20041;-49
2022/02/12 08:27:38;;;;;;;22.90;9.48;;;1.40;99.90;;;;;;5051536;28;20043;-50
2022/02/12 08:30:07;;;;;;;30.63;9.77;;;1.50;99.90;;;;;;5051412;28;20069;-52
2022/02/12 08:32:33;;;;;;;26.13;10.07;;;1.50;99.90;;;;;;5050203;28;20131;-49
2022/02/12 08:34:59;;;;;;;22.27;9.60;;;1.60;99.90;;;;;;5051205;28;20140;-49
2022/02/12 08:37:24;;;;;;;18.83;9.45;;;1.70;99.90;;;;;;5043310;28;20094;-49
2022/02/12 08:39:50;;;;;;;21.88;9.10;;;1.70;99.90;;;;;;5050541;28;20037;-49
2022/02/12 08:42:20;;;;;;;23.90;9.98;;;1.70;99.90;;;;;;5049717;28;20550;-52
2022/02/12 08:44:48;;;;;;;22.52;8.88;;;1.80;99.90;;;;;;5051212;28;20110;-49
2022/02/12 08:47:14;;;;;;;19.55;8.48;;;1.80;99.90;;;;;;5051364;28;20087;-52
2022/02/12 08:49:40;;;;;;;20.00;8.45;;;1.90;99.90;;;;;;5051259;28;20500;-49
2022/02/12 08:52:06;;;;;;;23.08;8.15;;;2.00;99.90;;;;;;5044571;28;20489;-49
2022/02/12 08:54:33;;;;;;;15.38;8.05;;;2.00;99.90;;;;;;5044556;28;20041;-50
2022/02/12 08:56:59;;;;;;;15.10;7.40;;;2.00;99.90;;;;;;5048654;28;20057;-49
2022/02/12 08:59:25;;;;;;;21.83;8.20;;;2.00;99.90;;;;;;5049884;28;20037;-50
2022/02/12 09:01:50;;;;;;;14.35;7.38;;;2.10;99.90;;;;;;5053404;28;20076;-52
2022/02/12 09:04:16;;;;;;;24.27;9.00;;;2.10;99.90;;;;;;5050003;28;20132;-49
2022/02/12 09:06:41;;;;;;;22.67;7.88;;;2.20;99.90;;;;;;5055252;28;20037;-49
2022/02/12 09:09:10;;;;;;;18.35;7.30;;;2.20;99.90;;;;;;5055418;28;20037;-50
2022/02/12 09:11:38;;;;;;;16.17;6.97;;;2.20;99.90;;;;;;5070681;28;20040;-49
2022/02/12 09:14:04;;;;;;;18.48;7.53;;;2.30;99.90;;;;;;5064767;28;20041;-49
2022/02/12 09:16:30;;;;;;;18.83;7.57;;;2.40;99.90;;;;;;5046780;28;20190;-50
2022/02/12 09:18:55;;;;;;;14.90;7.65;;;2.40;99.90;;;;;;5052933;28;20043;-53
2022/02/12 09:21:22;;;;;;;17.08;6.95;;;2.40;99.90;;;;;;5040839;28;20042;-52
2022/02/12 09:23:49;;;;;;;18.58;6.82;;;2.50;99.90;;;;;;5053723;28;20075;-51
2022/02/12 09:26:15;;;;;;;15.43;6.93;;;2.90;99.90;;;;;;5054670;28;20037;-49
2022/02/12 09:28:41;;;;;;;18.30;6.75;;;2.50;99.90;;;;;;5055071;28;20113;-50
2022/02/12 09:31:06;;;;;;;15.63;7.00;;;2.60;99.90;;;;;;5054167;28;20040;-49
2022/02/12 09:33:32;;;;;;;22.63;7.07;;;2.60;99.90;;;;;;5055058;28;20063;-49
2022/02/12 09:35:57;;;;;;;18.58;7.18;;;2.70;99.90;;;;;;5054920;28;20049;-57
2022/02/12 09:38:24;;;;;;;18.38;6.90;;;2.60;99.90;;;;;;5054916;28;20033;-49
2022/02/12 09:40:50;;;;;;;18.05;6.35;;;2.70;99.90;;;;;;5062847;28;20028;-51
2022/02/12 09:43:19;;;;;;;16.75;6.15;;;2.80;99.90;;;;;;5075002;28;20119;-49
2022/02/12 09:46:08;;;;;;;23.77;7.18;;;2.90;99.90;;;;;;5074953;28;20442;-52
2022/02/12 09:48:35;;;;;;;17.50;6.25;;;2.90;99.90;;;;;;5073400;28;20044;-52
2022/02/12 09:51:02;;;;;;;19.05;6.47;;;3.00;99.90;;;;;;5074495;28;20036;-50
2022/02/12 09:53:31;;;;;;;16.73;6.13;;;3.10;99.90;;;;;;5074474;28;20036;-50
2022/02/12 09:55:58;;;;;;;14.75;5.80;;;3.20;99.90;;;;;;5070227;28;20033;-56
2022/02/12 09:58:23;;;;;;;12.95;6.18;;;3.20;99.90;;;;;;5058889;28;20076;-50
2022/02/12 10:00:49;;;;;;;19.08;6.45;;;3.30;99.90;;;;;;5049364;28;20439;-50
2022/02/12 10:03:14;;;;;;;15.82;6.03;;;3.40;99.90;;;;;;5044903;28;20041;-49
2022/02/12 10:05:53;;;;;;;14.00;5.20;;;3.40;99.90;;;;;;5048197;28;20060;-52
2022/02/12 10:08:19;;;;;;;19.83;6.05;;;3.50;99.90;;;;;;5058381;28;20076;-51
2022/02/12 10:10:46;;;;;;;11.75;5.72;;;3.60;99.90;;;;;;5047473;28;20034;-53
2022/02/12 10:13:14;;;;;;;20.50;5.68;;;3.60;99.90;;;;;;5034430;28;20037;-49
2022/02/12 10:15:48;;;;;;;14.13;5.72;;;3.70;99.90;;;;;;5033790;28;20398;-49
2022/02/12 10:18:14;;;;;;;22.42;5.75;;;3.70;99.90;;;;;;5047821;28;20032;-50
2022/02/12 10:20:42;;;;;;;13.40;5.70;;;3.70;99.90;;;;;;5074112;28;20485;-50
2022/02/12 10:23:11;;;;;;;18.20;5.93;;;3.80;99.90;;;;;;5074163;28;20050;-49
2022/02/12 10:25:37;;;;;;;18.83;6.18;;;3.90;99.90;;;;;;5074042;28;20040;-49
2022/02/12 10:28:05;;;;;;;14.63;5.70;;;3.90;99.90;;;;;;5072527;28;20062;-51
2022/02/12 10:30:31;;;;;;;14.93;5.57;;;3.90;99.90;;;;;;5073799;28;20082;-51
2022/02/12 10:32:59;;;;;;;14.18;5.47;;;4.00;99.90;;;;;;5073814;28;20040;-49
2022/02/12 10:35:25;;;;;;;22.05;5.28;;;4.00;99.90;;;;;;5074114;28;20094;-50
2022/02/12 10:37:51;;;;;;;19.00;4.97;;;4.20;99.90;;;;;;5072734;28;20040;-54
2022/02/12 10:40:17;;;;;;;18.02;5.10;;;4.20;99.90;;;;;;5057932;28;20045;-49
2022/02/12 10:42:46;;;;;;;19.20;5.60;;;4.20;99.90;;;;;;5033639;28;20517;-49
2022/02/12 10:45:17;;;;;;;16.70;5.68;;;4.30;99.90;;;;;;5033715;28;20043;-49
2022/02/12 10:47:46;;;;;;;19.08;5.15;;;4.30;99.90;;;;;;5038213;28;20033;-49
2022/02/12 10:50:14;;;;;;;15.90;5.07;;;4.40;99.90;;;;;;5073773;28;20079;-50
2022/02/12 10:52:42;;;;;;;15.55;5.28;;;4.40;99.90;;;;;;5073518;28;20488;-49
2022/02/12 10:55:19;;;;;;;11.75;4.80;;;4.50;99.90;;;;;;5073499;28;20504;-49
2022/02/12 10:57:44;;;;;;;18.83;5.00;;;4.50;99.90;;;;;;5072003;28;20446;-50
2022/02/12 11:00:10;;;;;;;16.67;5.00;;;4.50;99.90;;;;;;5073514;28;20041;-52
2022/02/12 11:02:38;;;;;;;15.80;5.13;;;4.60;99.60;;;;;;5073323;28;20041;-49
2022/02/12 11:05:05;;;;;;;19.23;5.78;;;4.60;99.80;;;;;;5047425;28;20044;-51
2022/02/12 11:07:31;;;;;;;18.35;5.90;;;4.70;98.60;;;;;;5051275;28;20091;-49
2022/02/12 11:09:57;;;;;;;15.00;4.68;;;4.80;99.00;;;;;;5053135;28;20033;-50
2022/02/12 11:12:29;;;;;;;21.13;5.55;;;4.80;98.80;;;;;;5074571;22;20037;-54
2022/02/12 11:14:55;;;;;;;;;;;4.90;98.10;;;;;;5009655;28;20145;-53
2022/02/12 11:17:22;;;;;;;17.92;4.75;;;5.00;97.60;;;;;;4988742;28;19924;-53
2022/02/12 11:19:52;;;;;;;12.13;4.30;;;5.00;97.70;;;;;;4979773;28;20052;-55
2022/02/12 11:22:18;;;;;;;15.38;4.55;;;5.00;97.20;;;;;;5013233;28;20121;-55
2022/02/12 11:24:45;;;;;;;16.90;5.60;;;5.10;96.80;;;;;;5020922;28;20091;-53
2022/02/12 11:27:27;;;;;;;20.33;4.78;;;5.10;96.20;;;;;;5051313;28;20041;-55
2022/02/12 11:29:54;;;;;;;19.50;5.37;;;5.20;96.30;;;;;;5013359;28;20064;-53
2022/02/12 11:32:23;;;;;;;19.50;4.45;;;5.30;95.90;;;;;;5013185;28;20276;-53
2022/02/12 11:35:12;;;;;;;12.75;4.57;;;5.30;95.70;;;;;;5011972;28;20460;-54
2022/02/12 11:37:39;;;;;;;18.63;4.53;;;5.30;94.90;;;;;;5012664;28;20061;-54
2022/02/12 11:40:13;;;;;;;15.27;4.70;;;5.40;94.60;;;;;;5013151;28;20048;-53
2022/02/12 11:42:45;;;;;;;15.00;4.22;;;5.50;94.30;;;;;;5012873;28;20073;-54
2022/02/12 11:45:19;;;;;;;14.75;5.60;;;5.50;93.80;;;;;;5027670;28;20048;-54
2022/02/12 11:48:09;;;;;;;15.27;5.07;;;5.60;94.10;;;;;;5052177;28;20124;-54
2022/02/12 11:50:43;;;;;;;12.38;4.10;;;5.70;93.30;;;;;;5052465;28;20055;-54
2022/02/12 11:53:35;;;;;;;15.85;4.10;;;5.90;92.50;;;;;;5052511;28;20044;-54
2022/02/12 11:56:09;;;;;;;14.52;3.92;;;5.90;91.70;;;;;;5051080;28;20049;-52
2022/02/12 11:58:45;;;;;;;13.70;4.13;;;6.00;90.60;;;;;;5052449;28;20041;-53
2022/02/12 12:01:35;;;;;;;17.13;4.38;;;6.10;89.40;;;;;;5052290;28;20053;-53
2022/02/12 12:04:11;;;;;;;13.68;3.90;;;6.10;89.70;;;;;;5052137;28;20052;-54
2022/02/12 12:06:38;;;;;;;14.65;4.05;;;6.10;89.60;;;;;;5050620;28;20401;-54
2022/02/12 12:09:05;;;;;;;11.07;4.10;;;6.10;90.30;;;;;;5052350;28;20045;-55
2022/02/12 12:11:30;;;;;;;15.50;4.10;;;6.20;88.00;;;;;;5052069;28;20390;-54
2022/02/12 12:13:58;;;;;;;14.38;4.50;;;6.20;88.20;;;;;;5051894;28;20047;-53
2022/02/12 12:16:32;;;;;;;12.73;4.32;;;6.30;86.40;;;;;;5050677;28;20225;-52
2022/02/12 12:19:00;;;;;;;10.95;4.40;;;6.30;86.70;;;;;;5051904;28;20116;-54
2022/02/12 12:21:25;;;;;;;9.90;3.95;;;6.30;87.60;;;;;;5017547;28;20045;-55
2022/02/12 12:23:57;;;;;;;14.05;3.75;;;6.40;84.60;;;;;;5051915;28;20493;-53
2022/02/12 12:26:37;;;;;;;9.40;3.45;;;6.40;83.60;;;;;;5050693;28;20095;-55
2022/02/12 12:32:14;;;;;;;15.07;4.75;;;6.40;84.10;;;;;;5051988;28;20114;-54
2022/02/12 12:34:50;;;;;;;12.85;4.47;;;6.40;85.20;;;;;;5039308;28;20045;-54
2022/02/12 12:37:17;;;;;;;17.83;4.60;;;6.40;86.40;;;;;;5023438;28;20421;-54
2022/02/12 12:39:43;;;;;;;14.52;4.20;;;6.50;83.30;;;;;;5031618;28;20045;-54
2022/02/12 12:42:15;;;;;;;17.58;4.28;;;6.50;82.80;;;;;;5031538;28;20054;-54
2022/02/12 12:44:42;;;;;;;15.45;4.53;;;6.40;82.10;;;;;;5048026;28;20579;-53
2022/02/12 12:47:08;;;;;;;11.35;4.30;;;6.40;82.90;;;;;;5051522;28;20037;-52
2022/02/12 12:49:40;;;;;;;19.90;4.78;;;6.40;83.50;;;;;;5051531;28;20040;-54
2022/02/12 12:52:10;;;;;;;16.10;4.35;;;6.40;83.00;;;;;;5051470;28;20519;-54
2022/02/12 12:54:41;;;;;;;10.25;4.03;;;6.50;80.60;;;;;;5050141;28;20048;-55